Terminal Aerodrome Forecast
Issued by NWS

Home | Current Version | Previous Version | Text Only | Print | Product List | Glossary On
Versions: 1 2 3 4 5 6 7 8 9 10 11 12 13 14 15 16
000
FTUS43 KMQT 031120
TAFCMX
TAF
KCMX 031120Z 0312/0412 27010KT P6SM BKN050
     FM031500 29013G20KT P6SM VCSH BKN035
     FM040100 30009KT P6SM VCSH BKN040=

USA.gov is the U.S. government's official web portal to all federal, state and local government web resources and services.